Time;durP1;ratioP1;P1;durP2;ratioP2;P2;SDS_P1;SDS_P2;PMS_P1;PMS_P2;Temp;Humidity;BMP_temperature;BMP_pressure;BME280_temperature;BME280_humidity;BME280_pressure;Samples;Min_cycle;Max_cycle;Signal;HPM_P1;HPM_P2
2021/12/14 00:02:42;;;;;;;27.13;11.45;;;;;;;-2.22;87.20;100790.94;4436202;32;34398;-76
2021/12/14 00:05:31;;;;;;;21.58;10.63;;;;;;;-1.70;83.61;100794.88;4434093;32;34592;-76
2021/12/14 00:08:18;;;;;;;21.23;10.40;;;;;;;-1.30;81.04;100795.81;4434836;32;34944;-76
2021/12/14 00:13:58;;;;;;;22.42;10.13;;;;;;;-0.85;78.93;100792.50;4435412;32;34284;-76
2021/12/14 00:16:50;;;;;;;19.62;9.75;;;;;;;-0.82;78.55;100794.81;4434486;32;34693;-76
2021/12/14 00:19:37;;;;;;;20.67;10.25;;;;;;;-0.71;78.07;100799.56;4434723;32;35953;-76
2021/12/14 00:24:06;;;;;;;20.98;10.98;;;;;;;-0.67;77.98;100790.03;4435051;32;35246;-76
2021/12/14 00:25:47;;;;;;;21.90;10.63;;;;;;;-0.67;77.97;100795.41;4435131;32;33976;-76
2021/12/14 00:28:34;;;;;;;23.60;10.68;;;;;;;-0.68;78.13;100799.16;4433637;32;35586;-76
2021/12/14 00:31:21;;;;;;;22.30;11.48;;;;;;;-0.58;77.70;100794.16;4435021;32;34896;-76
2021/12/14 00:34:08;;;;;;;23.67;11.18;;;;;;;-0.59;77.76;100784.44;4433886;32;34607;-76
2021/12/14 00:36:56;;;;;;;21.58;11.18;;;;;;;-0.44;77.25;100794.13;4434644;32;35181;-76
2021/12/14 00:39:43;;;;;;;22.70;10.63;;;;;;;-0.36;76.78;100802.00;4435064;32;34243;-75
2021/12/14 00:42:29;;;;;;;24.65;11.27;;;;;;;-0.32;76.49;100792.44;4423532;32;36082;-76
2021/12/14 00:45:17;;;;;;;19.12;10.10;;;;;;;-0.34;76.57;100797.19;4435580;32;36177;-76
2021/12/14 00:48:05;;;;;;;21.85;10.15;;;;;;;-0.39;77.10;100803.22;4435382;32;34268;-76
2021/12/14 00:50:56;;;;;;;22.85;10.13;;;;;;;-1.32;79.99;100805.09;4433286;32;34647;-75
2021/12/14 00:53:42;;;;;;;21.15;10.77;;;;;;;-2.00;85.13;100813.97;4435446;32;34940;-75
2021/12/14 00:56:29;;;;;;;23.08;10.02;;;;;;;-1.91;84.62;100820.81;4433694;32;34129;-75
2021/12/14 00:59:18;;;;;;;21.23;10.02;;;;;;;-2.26;84.91;100818.19;4434321;32;34821;-75
2021/12/14 01:02:20;;;;;;;21.70;10.63;;;;;;;-1.03;80.07;100817.34;4432877;32;34687;-75
2021/12/14 01:05:17;;;;;;;20.52;10.07;;;;;;;-0.66;77.72;100813.19;4433322;32;34512;-75
2021/12/14 01:08:08;;;;;;;17.80;9.25;;;;;;;-0.53;76.89;100807.00;4433088;32;33580;-76
2021/12/14 01:11:05;;;;;;;23.67;10.32;;;;;;;-0.36;76.39;100807.38;4433857;32;34015;-75
2021/12/14 01:14:04;;;;;;;20.05;8.38;;;;;;;-0.31;76.13;100813.78;4435347;32;34713;-76
2021/12/14 01:17:08;;;;;;;20.08;8.55;;;;;;;-0.28;75.91;100820.63;4434035;32;34996;-75
2021/12/14 01:19:59;;;;;;;18.02;9.25;;;;;;;-0.85;78.19;100817.56;4433736;32;35823;-76
2021/12/14 01:22:48;;;;;;;20.65;9.75;;;;;;;-0.37;77.01;100821.84;4433785;32;34431;-76
2021/12/14 01:25:36;;;;;;;20.88;9.85;;;;;;;-0.18;76.07;100821.00;4433207;32;35520;-76
2021/12/14 01:28:27;;;;;;;21.37;10.10;;;;;;;-0.94;77.10;100824.16;4434172;32;34973;-76
2021/12/14 01:31:28;;;;;;;24.10;10.48;;;;;;;-1.95;82.73;100830.34;4421903;32;35032;-75
2021/12/14 01:34:20;;;;;;;20.63;9.83;;;;;;;-1.73;83.06;100830.22;4434382;32;33769;-76
2021/12/14 01:37:17;;;;;;;21.05;10.57;;;;;;;-2.01;84.92;100823.06;4434040;32;35311;-76
2021/12/14 01:40:07;;;;;;;22.42;10.55;;;;;;;-1.44;82.68;100821.84;4433017;32;34996;-76
2021/12/14 01:42:53;;;;;;;22.42;10.30;;;;;;;-0.69;78.33;100819.81;4434998;32;34300;-76
2021/12/14 01:45:40;;;;;;;20.73;10.57;;;;;;;-0.66;77.67;100810.50;4433531;32;34770;-75
2021/12/14 01:48:27;;;;;;;23.02;11.40;;;;;;;-0.35;76.79;100814.41;4434101;32;35609;-76
2021/12/14 01:51:15;;;;;;;22.65;11.38;;;;;;;-0.39;77.15;100816.69;4422127;32;35889;-76
2021/12/14 01:54:09;;;;;;;21.15;10.55;;;;;;;-1.25;79.03;100804.09;4433989;32;34403;-76
2021/12/14 01:57:03;;;;;;;25.17;12.82;;;;;;;-1.62;83.25;100818.91;4433959;32;33356;-76
2021/12/14 01:59:55;;;;;;;24.33;12.30;;;;;;;-2.94;87.45;100819.75;4434221;32;34588;-75
2021/12/14 02:02:44;;;;;;;;;;;;;;;-3.86;94.86;100809.78;4434605;32;35999;-75
2021/12/14 02:05:35;;;;;;;30.88;13.62;;;;;;;-3.76;96.07;100821.00;4432725;32;37508;-75
2021/12/14 02:08:25;;;;;;;29.33;13.70;;;;;;;-3.03;94.59;100812.87;4433394;32;33923;-75
2021/12/14 02:11:11;;;;;;;27.67;12.68;;;;;;;-2.24;89.75;100819.87;4433681;32;34677;-75
2021/12/14 02:13:58;;;;;;;25.98;11.85;;;;;;;-1.38;84.61;100815.63;4433386;32;35934;-76
2021/12/14 02:16:49;;;;;;;23.45;12.13;;;;;;;-1.13;82.02;100815.06;4432436;32;34733;-76
2021/12/14 02:19:36;;;;;;;27.52;11.98;;;;;;;-1.04;81.53;100804.94;4433096;32;34343;-76
2021/12/14 02:22:23;;;;;;;24.83;11.80;;;;;;;-1.05;80.44;100812.19;4433099;32;35091;-76
2021/12/14 02:25:11;;;;;;;26.58;11.98;;;;;;;-0.84;79.67;100805.75;4433295;32;34494;-75
2021/12/14 02:28:01;;;;;;;23.10;11.70;;;;;;;-1.60;82.86;100808.75;4433597;32;34191;-76
2021/12/14 02:30:51;;;;;;;30.48;13.20;;;;;;;-2.05;85.38;100808.38;4431800;32;33739;-76
2021/12/14 02:33:39;;;;;;;23.87;11.68;;;;;;;-1.82;84.64;100822.34;4435100;32;34137;-75
2021/12/14 02:36:34;;;;;;;23.77;11.60;;;;;;;-1.50;83.64;100819.97;4435114;32;34730;-76
2021/12/14 02:40:14;;;;;;;25.08;12.10;;;;;;;-1.44;81.37;100821.84;4433702;32;35530;-76
2021/12/14 02:42:32;;;;;;;24.87;11.70;;;;;;;-2.18;83.98;100816.37;4434534;32;34347;-75
2021/12/14 02:45:23;;;;;;;27.60;11.80;;;;;;;-1.48;81.48;100814.38;4435303;32;34723;-75
2021/12/14 02:48:10;;;;;;;25.42;11.93;;;;;;;-1.24;79.99;100815.66;4434386;32;35097;-75
2021/12/14 02:51:08;;;;;;;22.98;11.25;;;;;;;-1.27;79.86;100811.53;4433940;32;34268;-76
2021/12/14 02:53:58;;;;;;;24.70;11.00;;;;;;;-1.30;80.39;100813.81;4433134;32;35143;-75
2021/12/14 02:56:49;;;;;;;26.92;12.63;;;;;;;-1.11;79.50;100818.38;4433917;32;34587;-75
2021/12/14 02:59:37;;;;;;;28.17;13.65;;;;;;;-1.94;83.68;100821.22;4434339;32;35002;-75
2021/12/14 03:02:28;;;;;;;29.08;14.45;;;;;;;-2.96;88.24;100822.66;4433636;32;35078;-75
2021/12/14 03:05:21;;;;;;;29.83;14.13;;;;;;;-3.13;91.52;100815.91;4434094;32;35157;-75
2021/12/14 03:08:14;;;;;;;29.45;15.10;;;;;;;-2.34;89.81;100810.28;4434561;32;34907;-76
2021/12/14 03:11:11;;;;;;;28.52;14.57;;;;;;;-1.59;86.01;100824.69;4432536;32;33776;-75
2021/12/14 03:13:57;;;;;;;31.52;14.38;;;;;;;-2.35;88.16;100813.19;4433820;32;34478;-76
2021/12/14 03:16:44;;;;;;;31.85;14.15;;;;;;;-1.73;85.82;100817.63;4434489;32;33926;-76
2021/12/14 03:19:30;;;;;;;27.45;14.25;;;;;;;-1.29;83.53;100804.69;4435232;32;34563;-75
2021/12/14 03:22:59;;;;;;;28.33;13.45;;;;;;;-1.27;82.84;100805.31;4434316;32;35896;-76
2021/12/14 03:25:52;;;;;;;33.50;15.50;;;;;;;-1.74;85.43;100804.38;4433371;32;34600;-75
2021/12/14 03:28:45;;;;;;;33.55;15.90;;;;;;;-1.64;86.18;100821.78;4435225;32;35225;-75
2021/12/14 03:31:36;;;;;;;37.15;16.48;;;;;;;-2.65;91.48;100813.37;4432770;32;35174;-76
2021/12/14 03:34:27;;;;;;;33.88;16.35;;;;;;;-2.46;90.28;100811.88;4433667;32;34952;-76
2021/12/14 03:37:15;;;;;;;;;;;;;;;-1.98;88.35;100806.56;4434543;32;34565;-76
2021/12/14 03:40:03;;;;;;;32.45;14.13;;;;;;;-1.28;84.05;100799.13;4434519;32;34936;-76
2021/12/14 03:42:49;;;;;;;30.62;14.50;;;;;;;-1.20;82.01;100796.22;4433629;32;34660;-75
2021/12/14 03:45:39;;;;;;;32.25;14.52;;;;;;;-1.05;81.24;100798.72;4435320;32;35713;-76
2021/12/14 03:48:27;;;;;;;32.78;15.25;;;;;;;-1.32;82.46;100802.41;4434174;32;35165;-76
2021/12/14 03:51:19;;;;;;;30.35;15.50;;;;;;;-1.11;81.21;100799.56;4422352;32;33684;-76
2021/12/14 03:54:06;;;;;;;30.50;14.75;;;;;;;-1.22;81.80;100789.41;4424340;32;33320;-76
2021/12/14 03:56:54;;;;;;;26.40;12.80;;;;;;;-1.09;80.50;100786.72;4434421;32;34989;-76
2021/12/14 03:59:42;;;;;;;29.50;13.82;;;;;;;-1.14;80.74;100789.19;4435546;32;34606;-76
2021/12/14 04:02:28;;;;;;;27.35;13.02;;;;;;;-1.02;80.10;100795.63;4422134;32;33821;-76
2021/12/14 04:05:14;;;;;;;27.77;12.80;;;;;;;-1.02;80.38;100787.56;4434335;32;34679;-76
2021/12/14 04:08:02;;;;;;;32.60;14.93;;;;;;;-1.13;80.35;100796.25;4435525;32;35701;-76
2021/12/14 04:10:51;;;;;;;29.63;14.40;;;;;;;-2.60;86.62;100794.03;4435516;32;35622;-76
2021/12/14 04:13:44;;;;;;;31.33;15.15;;;;;;;-1.92;85.21;100797.69;4432613;32;33927;-76
2021/12/14 04:16:31;;;;;;;30.23;14.13;;;;;;;-2.36;86.58;100792.72;4434631;32;34777;-76
2021/12/14 04:19:21;;;;;;;28.65;14.50;;;;;;;-2.66;88.41;100794.81;4434128;32;34981;-76
2021/12/14 04:22:17;;;;;;;30.23;14.20;;;;;;;-2.41;88.35;100795.19;4433490;32;34792;-76
2021/12/14 04:25:06;;;;;;;32.28;15.15;;;;;;;-1.55;83.61;100795.53;4431903;32;33847;-76
2021/12/14 04:27:55;;;;;;;32.17;14.73;;;;;;;-2.20;84.04;100799.63;4434409;32;34413;-76
2021/12/14 04:30:42;;;;;;;32.15;16.33;;;;;;;-2.20;85.65;100800.44;4423051;32;34520;-76
2021/12/14 04:33:32;;;;;;;35.58;16.40;;;;;;;-4.03;94.89;100808.31;4432247;32;34967;-75
2021/12/14 04:36:22;;;;;;;41.22;17.90;;;;;;;-4.14;98.10;100805.09;4434664;32;35092;-76
2021/12/14 04:52:00;;;;;;;41.97;17.30;;;;;;;-4.46;100.00;100805.47;4399697;32;34099;-75
2021/12/14 04:54:49;;;;;;;44.85;17.55;;;;;;;-4.44;100.00;100800.75;4428467;32;34968;-75
2021/12/14 04:57:43;;;;;;;42.00;18.65;;;;;;;-3.84;98.25;100807.75;4433260;32;35176;-76
2021/12/14 05:00:33;;;;;;;42.28;16.83;;;;;;;-3.52;96.04;100805.63;4432410;32;34720;-76
2021/12/14 05:03:32;;;;;;;40.22;16.60;;;;;;;-3.53;94.67;100803.94;4433238;32;34587;-76
2021/12/14 05:06:21;;;;;;;40.25;16.15;;;;;;;-4.36;96.67;100814.06;4433575;32;35873;-75
2021/12/14 05:09:22;;;;;;;34.05;15.45;;;;;;;-4.22;96.96;100810.53;4434811;32;36406;-75
2021/12/14 05:12:13;;;;;;;34.03;15.98;;;;;;;-3.08;91.81;100812.63;4434313;32;34437;-75
2021/12/14 05:15:06;;;;;;;34.85;14.70;;;;;;;-3.02;90.27;100815.34;4430831;32;34179;-75
2021/12/14 05:17:53;;;;;;;37.90;16.75;;;;;;;-3.48;91.12;100812.25;4433194;32;34527;-75
2021/12/14 05:20:43;;;;;;;31.55;15.35;;;;;;;-2.55;88.38;100815.75;4427110;32;35579;-76
2021/12/14 05:23:33;;;;;;;31.80;14.50;;;;;;;-2.40;86.45;100819.13;4428489;32;35180;-75
2021/12/14 05:26:22;;;;;;;32.35;14.43;;;;;;;-1.58;84.08;100830.88;4431302;32;34698;-75
2021/12/14 05:29:10;;;;;;;39.72;18.17;;;;;;;-1.33;81.76;100833.03;4431922;32;35517;-75
2021/12/14 05:32:02;;;;;;;40.58;19.65;;;;;;;-1.43;81.20;100825.34;4431514;32;34546;-75
2021/12/14 05:34:55;;;;;;;32.75;13.95;;;;;;;-1.44;81.40;100815.63;4432189;32;35014;-75
2021/12/14 05:37:47;;;;;;;28.00;14.32;;;;;;;-1.40;78.84;100823.06;4431464;32;34658;-75
2021/12/14 05:43:27;;;;;;;26.98;13.25;;;;;;;-1.94;80.69;100831.97;4428670;32;34242;-76
2021/12/14 05:46:20;;;;;;;28.95;13.73;;;;;;;-2.20;81.83;100815.75;4425591;32;34120;-77
2021/12/14 05:49:11;;;;;;;29.10;14.32;;;;;;;-1.67;80.93;100826.72;4428797;32;34294;-77
2021/12/14 05:52:00;;;;;;;29.60;13.82;;;;;;;-1.53;79.54;100828.44;4431225;32;35833;-78
2021/12/14 05:54:48;;;;;;;30.98;14.32;;;;;;;-1.34;79.14;100836.75;4425924;32;35435;-79
2021/12/14 05:57:37;;;;;;;31.60;14.82;;;;;;;-1.15;77.11;100831.41;4433089;32;33250;-77
2021/12/14 06:00:25;;;;;;;31.92;14.40;;;;;;;-1.28;77.58;100834.09;4431947;32;34729;-78
2021/12/14 06:03:39;;;;;;;29.67;14.93;;;;;;;-1.24;77.58;100834.50;4431795;32;36563;-78
2021/12/14 06:06:35;;;;;;;29.17;14.75;;;;;;;-0.94;76.17;100837.63;4431040;32;35764;-75
2021/12/14 06:09:29;;;;;;;28.02;14.27;;;;;;;-0.99;74.68;100823.97;4430344;32;34022;-75
2021/12/14 06:12:25;;;;;;;26.65;14.48;;;;;;;-1.07;74.73;100827.69;4430480;32;34261;-74
2021/12/14 06:15:17;;;;;;;28.23;14.75;;;;;;;-1.18;75.33;100831.81;4429155;32;34764;-74
2021/12/14 06:18:04;;;;;;;30.73;15.13;;;;;;;-1.23;75.86;100838.84;4428144;32;34179;-74
2021/12/14 06:20:53;;;;;;;26.80;14.63;;;;;;;-1.09;75.21;100840.50;4425125;32;34194;-74
2021/12/14 06:23:42;;;;;;;29.05;15.15;;;;;;;-1.32;75.62;100840.87;4433204;32;34587;-74
2021/12/14 06:26:36;;;;;;;29.42;14.65;;;;;;;-1.89;76.67;100851.00;4431962;32;35003;-73
2021/12/14 06:29:28;;;;;;;29.87;14.50;;;;;;;-1.57;77.34;100840.59;4427739;32;34235;-73
2021/12/14 06:32:18;;;;;;;29.87;14.68;;;;;;;-1.48;76.68;100844.78;4431245;32;35144;-73
2021/12/14 06:35:10;;;;;;;30.20;15.52;;;;;;;-1.59;76.55;100840.81;4420261;32;34554;-74
2021/12/14 06:38:28;;;;;;;30.23;17.27;;;;;;;-1.11;75.17;100842.59;4432159;32;35671;-77
2021/12/14 06:41:21;;;;;;;38.83;20.23;;;;;;;-1.11;74.76;100841.75;4430791;32;34634;-76
2021/12/14 06:44:08;;;;;;;49.20;24.10;;;;;;;-1.90;77.52;100835.94;4431378;32;34076;-74
2021/12/14 06:46:54;;;;;;;49.90;24.20;;;;;;;-1.28;74.77;100849.38;4430269;32;35541;-74
2021/12/14 06:49:41;;;;;;;48.80;24.75;;;;;;;-1.33;74.83;100849.16;4431496;32;36047;-75
2021/12/14 06:52:28;;;;;;;39.38;20.37;;;;;;;-2.32;78.19;100845.81;4429180;32;35602;-75
2021/12/14 06:55:21;;;;;;;33.85;17.00;;;;;;;-2.52;78.95;100848.38;4431044;32;35121;-75
2021/12/14 06:58:17;;;;;;;37.95;17.48;;;;;;;-3.64;83.70;100861.53;4432277;32;35565;-75
2021/12/14 07:01:08;;;;;;;33.53;16.37;;;;;;;-1.91;78.00;100857.63;4431131;32;34652;-75
2021/12/14 07:03:59;;;;;;;34.35;16.08;;;;;;;-2.31;78.50;100860.06;4432831;32;34348;-75
2021/12/14 07:06:56;;;;;;;29.42;14.75;;;;;;;-2.86;81.56;100870.59;4428299;32;34382;-75
2021/12/14 07:09:50;;;;;;;30.30;14.15;;;;;;;-1.84;78.38;100870.06;4431429;32;34338;-77
2021/12/14 07:12:38;;;;;;;26.50;14.13;;;;;;;-2.35;80.40;100874.94;4430224;32;35041;-77
2021/12/14 07:15:27;;;;;;;24.90;13.20;;;;;;;-2.28;80.04;100871.28;4431403;32;35149;-75
2021/12/14 07:18:14;;;;;;;25.75;12.82;;;;;;;-1.69;77.14;100863.72;4431915;32;33803;-75
2021/12/14 07:21:00;;;;;;;26.15;12.55;;;;;;;-1.50;76.24;100871.03;4432907;32;35199;-77
2021/12/14 07:23:46;;;;;;;26.55;15.02;;;;;;;-1.48;75.87;100874.34;4429559;32;35747;-76
2021/12/14 07:26:35;;;;;;;30.95;16.35;;;;;;;-1.51;76.47;100876.59;4430154;32;35471;-76
2021/12/14 07:29:22;;;;;;;30.80;18.73;;;;;;;-0.96;74.50;100880.06;4432403;32;34126;-76
2021/12/14 07:32:08;;;;;;;34.50;18.15;;;;;;;-1.02;73.78;100881.72;4432324;32;34724;-74
2021/12/14 07:35:13;;;;;;;33.25;17.73;;;;;;;-0.85;74.06;100875.91;4430809;32;34935;-75
2021/12/14 07:38:16;;;;;;;34.22;18.12;;;;;;;-0.59;73.34;100875.94;4423083;32;35523;-75
2021/12/14 07:41:02;;;;;;;36.08;17.55;;;;;;;-0.39;72.86;100878.63;4432780;32;33122;-76
2021/12/14 07:43:48;;;;;;;35.00;18.02;;;;;;;-0.25;72.88;100879.47;4432028;32;34700;-76
2021/12/14 07:46:47;;;;;;;38.22;19.35;;;;;;;-0.43;73.72;100879.25;4432113;32;34774;-75
2021/12/14 07:49:35;;;;;;;38.58;19.58;;;;;;;-1.12;77.02;100870.50;4433281;32;35574;-77
2021/12/14 07:52:35;;;;;;;37.05;18.10;;;;;;;-0.48;75.83;100864.56;4431895;32;35114;-74
2021/12/14 07:55:22;;;;;;;33.22;18.08;;;;;;;-0.20;75.41;100876.94;4432799;32;34758;-74
2021/12/14 07:58:10;;;;;;;35.42;20.27;;;;;;;-1.53;80.28;100871.44;4432346;32;34536;-76
2021/12/14 08:00:56;;;;;;;63.35;35.40;;;;;;;-2.13;83.43;100875.69;4432924;32;35745;-76
2021/12/14 08:03:44;;;;;;;50.65;28.23;;;;;;;-2.10;86.73;100875.31;4430424;32;34509;-76
2021/12/14 08:06:54;;;;;;;43.33;23.45;;;;;;;-1.15;81.06;100876.28;4431820;32;35585;-80
2021/12/14 08:09:48;;;;;;;41.80;21.70;;;;;;;-0.95;81.85;100874.47;4432507;32;36280;-81
2021/12/14 08:12:41;;;;;;;42.65;20.60;;;;;;;-1.88;84.88;100874.19;4417988;32;34486;-77
2021/12/14 08:15:42;;;;;;;38.55;20.40;;;;;;;-0.92;82.68;100879.44;4430689;32;34238;-77
2021/12/14 08:18:33;;;;;;;50.70;24.80;;;;;;;-0.38;80.70;100869.50;4430178;32;34658;-74
2021/12/14 08:21:23;;;;;;;53.90;26.12;;;;;;;-0.39;79.42;100883.19;4429949;32;34922;-76
2021/12/14 08:24:15;;;;;;;39.38;18.92;;;;;;;-0.02;78.47;100879.81;4428662;32;34699;-76
2021/12/14 08:27:03;;;;;;;31.98;16.90;;;;;;;-1.08;83.87;100869.09;4432598;32;35190;-77
2021/12/14 08:29:56;;;;;;;45.97;23.98;;;;;;;-0.03;78.88;100874.63;4428932;32;35518;-78
2021/12/14 08:32:43;;;;;;;40.10;20.65;;;;;;;-1.39;82.61;100867.75;4418859;32;34860;-80
2021/12/14 08:35:29;;;;;;;47.00;24.87;;;;;;;-0.03;79.50;100867.41;4427807;32;35018;-79
2021/12/14 08:38:18;;;;;;;41.78;21.67;;;;;;;-0.57;81.56;100886.50;4431006;32;34347;-77
2021/12/14 08:41:20;;;;;;;34.47;18.08;;;;;;;-0.96;81.66;100878.19;4433327;32;34716;-77
2021/12/14 08:44:11;;;;;;;38.10;19.42;;;;;;;-1.29;85.33;100878.13;4432688;32;35654;-78
2021/12/14 08:46:57;;;;;;;31.37;15.63;;;;;;;-1.19;85.41;100883.94;4431818;32;35475;-77
2021/12/14 08:49:43;;;;;;;38.58;21.23;;;;;;;-1.11;85.33;100880.25;4431359;32;34921;-78
2021/12/14 08:52:32;;;;;;;42.50;23.85;;;;;;;-0.91;84.34;100882.97;4432876;32;35514;-78
2021/12/14 08:55:20;;;;;;;33.28;17.40;;;;;;;-1.93;90.88;100882.00;4430645;32;36587;-74
2021/12/14 08:58:06;;;;;;;40.83;21.83;;;;;;;-1.51;90.80;100887.34;4425059;32;36962;-71
2021/12/14 09:01:00;;;;;;;34.85;17.33;;;;;;;-1.69;90.73;100883.34;4431145;32;34502;-74
2021/12/14 09:03:55;;;;;;;28.55;15.95;;;;;;;-1.47;91.02;100881.37;4432381;32;34215;-75
2021/12/14 09:06:45;;;;;;;31.65;16.48;;;;;;;-1.33;90.10;100884.13;4429426;32;33939;-75
2021/12/14 09:09:31;;;;;;;36.22;16.87;;;;;;;-0.56;86.89;100880.91;4431275;32;34631;-75
2021/12/14 09:12:25;;;;;;;36.22;17.52;;;;;;;-0.79;87.72;100877.81;4431525;32;34199;-75
2021/12/14 09:15:15;;;;;;;34.90;18.77;;;;;;;-0.71;87.58;100872.22;4432080;32;34617;-75
2021/12/14 09:18:03;;;;;;;37.25;19.42;;;;;;;-1.17;88.64;100872.97;4430695;32;33575;-75
2021/12/14 09:21:04;;;;;;;36.20;18.98;;;;;;;-0.63;87.74;100882.78;4432986;32;35109;-75
2021/12/14 09:23:55;;;;;;;38.23;18.73;;;;;;;-0.01;86.05;100872.56;4430519;32;34955;-76
2021/12/14 09:26:46;;;;;;;34.65;18.48;;;;;;;0.59;83.26;100869.66;4432874;32;34165;-75
2021/12/14 09:29:34;;;;;;;32.72;17.70;;;;;;;0.83;80.92;100877.00;4430120;32;34968;-75
2021/12/14 09:32:27;;;;;;;33.03;16.75;;;;;;;0.98;79.60;100873.19;4429427;32;33713;-75
2021/12/14 09:35:17;;;;;;;31.00;15.90;;;;;;;1.37;79.17;100872.06;4432077;32;34634;-75
2021/12/14 09:38:11;;;;;;;33.05;17.87;;;;;;;0.84;79.70;100870.53;4430376;32;35577;-76
2021/12/14 09:41:00;;;;;;;32.40;18.15;;;;;;;1.77;78.22;100867.13;4430104;32;35574;-77
2021/12/14 09:43:54;;;;;;;32.17;17.10;;;;;;;2.30;75.95;100859.50;4430745;32;34670;-76
2021/12/14 09:46:41;;;;;;;28.25;17.12;;;;;;;2.69;74.44;100850.03;4426489;32;33956;-77
2021/12/14 09:49:27;;;;;;;33.70;17.40;;;;;;;3.34;73.06;100854.69;4427731;32;34563;-76
2021/12/14 09:52:19;;;;;;;34.90;16.55;;;;;;;2.99;71.42;100847.34;4429758;32;34494;-76
2021/12/14 09:55:11;;;;;;;28.67;15.52;;;;;;;2.31;75.06;100844.94;4432326;32;35632;-77
2021/12/14 09:58:04;;;;;;;35.40;17.33;;;;;;;2.93;71.93;100843.66;4432892;32;34254;-76
2021/12/14 10:01:06;;;;;;;31.50;16.40;;;;;;;2.77;73.76;100844.31;4431588;32;34691;-77
2021/12/14 10:03:56;;;;;;;30.30;16.48;;;;;;;2.60;73.65;100841.41;4431632;32;35071;-78
2021/12/14 10:06:43;;;;;;;28.65;15.60;;;;;;;2.80;73.59;100837.63;4431284;32;34236;-76
2021/12/14 10:09:37;;;;;;;29.77;16.30;;;;;;;3.13;72.10;100837.94;4429679;32;35072;-75
2021/12/14 10:12:49;;;;;;;31.83;16.05;;;;;;;3.46;71.86;100835.75;4432302;32;34320;-75
2021/12/14 10:15:47;;;;;;;26.67;16.27;;;;;;;2.75;74.10;100834.78;4430544;32;34967;-76
2021/12/14 10:18:49;;;;;;;31.12;17.10;;;;;;;3.70;71.97;100839.28;4432456;32;35211;-77
2021/12/14 10:21:40;;;;;;;29.02;16.33;;;;;;;4.64;68.07;100825.50;4431513;32;34083;-76
2021/12/14 10:24:27;;;;;;;34.78;17.17;;;;;;;3.77;68.81;100826.44;4426181;32;90211;-76
2021/12/14 10:27:17;;;;;;;28.17;16.05;;;;;;;3.28;71.32;100823.13;4426243;32;35730;-73
2021/12/14 10:30:20;;;;;;;26.80;15.50;;;;;;;4.29;68.55;100816.44;4429205;32;34628;-75
2021/12/14 10:33:08;;;;;;;30.58;15.20;;;;;;;2.82;72.34;100816.56;4431692;32;34982;-75
2021/12/14 10:36:00;;;;;;;30.37;16.08;;;;;;;3.65;70.87;100818.31;4429501;32;35558;-73
2021/12/14 10:39:05;;;;;;;30.98;16.52;;;;;;;4.73;66.74;100814.03;4431855;32;34604;-72
2021/12/14 10:45:04;;;;;;;31.45;17.70;;;;;;;3.57;69.48;100818.66;4431339;32;33926;-74
2021/12/14 10:47:50;;;;;;;29.92;17.05;;;;;;;3.42;70.97;100819.16;4430908;32;34698;-76
2021/12/14 10:50:38;;;;;;;30.55;17.70;;;;;;;3.47;70.69;100816.56;4428798;32;35940;-75
2021/12/14 10:53:25;;;;;;;34.15;17.33;;;;;;;4.72;68.09;100816.97;4429831;32;34422;-77
2021/12/14 10:56:16;;;;;;;35.65;18.12;;;;;;;3.92;68.32;100807.78;4430271;32;35354;-76
2021/12/14 10:59:05;;;;;;;34.03;19.05;;;;;;;4.88;66.07;100810.75;4432344;32;36035;-76
2021/12/14 11:01:52;;;;;;;31.73;17.55;;;;;;;4.98;65.34;100810.13;4431000;32;35775;-75
2021/12/14 11:04:41;;;;;;;35.40;18.45;;;;;;;4.60;65.34;100816.22;4432184;32;35280;-75
2021/12/14 11:07:38;;;;;;;36.38;22.05;;;;;;;4.36;66.92;100818.19;4433307;32;34228;-75
2021/12/14 11:10:33;;;;;;;34.28;18.65;;;;;;;3.65;70.26;100814.78;4434604;32;34163;-75
2021/12/14 11:13:22;;;;;;;32.10;18.58;;;;;;;2.85;74.31;100807.97;4433021;32;35091;-75
2021/12/14 11:16:16;;;;;;;32.58;18.60;;;;;;;3.41;72.94;100803.94;4433759;32;34146;-75
2021/12/14 11:19:05;;;;;;;38.15;21.80;;;;;;;3.58;71.19;100802.16;4433831;32;34723;-74
2021/12/14 11:21:51;;;;;;;32.25;17.10;;;;;;;3.50;72.97;100804.41;4433614;32;34328;-75
2021/12/14 11:24:39;;;;;;;34.80;19.42;;;;;;;3.18;72.72;100796.59;4431573;32;34581;-76
2021/12/14 11:27:29;;;;;;;33.45;18.80;;;;;;;2.67;74.84;100801.53;4431732;32;35197;-76
2021/12/14 11:30:26;;;;;;;33.63;17.60;;;;;;;3.14;73.64;100798.97;4432993;32;35802;-75
2021/12/14 11:33:17;;;;;;;37.08;18.45;;;;;;;2.64;75.16;100807.41;4431475;32;35379;-75
2021/12/14 11:36:17;;;;;;;31.90;18.10;;;;;;;2.59;75.46;100804.59;4431632;32;35509;-77
2021/12/14 11:39:12;;;;;;;36.38;17.98;;;;;;;3.41;72.81;100800.41;4434704;32;33712;-76
2021/12/14 11:41:59;;;;;;;33.80;18.52;;;;;;;3.38;72.47;100798.97;4432535;32;35172;-76
2021/12/14 11:44:48;;;;;;;35.15;18.45;;;;;;;2.99;74.10;100798.59;4430592;32;34295;-77
2021/12/14 11:50:35;;;;;;;32.70;18.85;;;;;;;2.53;75.89;100804.69;4431353;32;34340;-78
2021/12/14 11:53:22;;;;;;;31.83;18.77;;;;;;;2.68;75.56;100795.09;4426847;32;34386;-77
2021/12/14 11:56:15;;;;;;;34.78;18.77;;;;;;;3.35;72.33;100785.91;4430648;32;34681;-78
2021/12/14 11:59:06;;;;;;;36.28;18.52;;;;;;;3.34;72.74;100789.69;4421368;32;34702;-78
2021/12/14 12:01:54;;;;;;;34.30;18.20;;;;;;;3.65;71.56;100790.41;4418078;32;34130;-78
2021/12/14 12:04:46;;;;;;;33.20;18.25;;;;;;;3.63;71.90;100797.94;4432519;32;33856;-78
2021/12/14 12:10:47;;;;;;;34.40;17.05;;;;;;;4.70;68.96;100786.56;4434146;32;34606;-78
2021/12/14 12:13:37;;;;;;;28.98;16.65;;;;;;;3.74;70.46;100783.53;4432970;32;35511;-78
2021/12/14 12:16:27;;;;;;;30.27;17.20;;;;;;;4.80;66.48;100792.16;4433338;32;34836;-78
2021/12/14 12:19:17;;;;;;;30.90;17.27;;;;;;;4.22;67.90;100782.37;4434384;32;34721;-78
2021/12/14 12:22:13;;;;;;;31.62;18.62;;;;;;;4.40;67.88;100781.38;4434687;32;34986;-78
2021/12/14 12:25:03;;;;;;;30.45;16.00;;;;;;;5.44;64.05;100785.59;4433442;32;36961;-77
2021/12/14 12:27:51;;;;;;;32.10;16.02;;;;;;;5.58;62.80;100785.00;4433450;32;34284;-78
2021/12/14 12:30:46;;;;;;;31.23;17.02;;;;;;;4.53;65.84;100788.41;4433781;32;34794;-78
2021/12/14 12:33:39;;;;;;;29.67;16.92;;;;;;;4.55;66.68;100786.25;4432436;32;34993;-78
2021/12/14 12:36:37;;;;;;;32.67;17.17;;;;;;;5.11;65.02;100782.63;4434548;32;34549;-78
2021/12/14 12:39:27;;;;;;;37.17;18.62;;;;;;;5.24;63.86;100776.06;4432767;32;33743;-78
2021/12/14 12:42:16;;;;;;;29.73;16.52;;;;;;;5.13;65.15;100785.13;4434683;32;34165;-77
2021/12/14 12:45:05;;;;;;;31.30;17.62;;;;;;;5.01;64.17;100776.19;4434706;32;35690;-78
2021/12/14 12:47:54;;;;;;;30.98;17.17;;;;;;;5.52;62.39;100779.72;4433869;32;35765;-78
2021/12/14 12:50:41;;;;;;;29.80;17.25;;;;;;;5.95;61.00;100778.16;4432733;32;34672;-78
2021/12/14 12:53:29;;;;;;;31.35;17.50;;;;;;;5.65;62.61;100782.09;4434902;32;34256;-78
2021/12/14 12:56:17;;;;;;;33.75;16.37;;;;;;;5.29;63.09;100775.28;4432396;32;35910;-78
2021/12/14 12:59:08;;;;;;;32.47;15.82;;;;;;;5.87;62.00;100769.34;4434246;32;35481;-78
2021/12/14 13:02:20;;;;;;;31.12;16.23;;;;;;;6.28;60.50;100769.88;4434557;32;34289;-78
2021/12/14 13:05:16;;;;;;;29.75;17.65;;;;;;;6.60;59.22;100768.28;4434449;32;34216;-78
2021/12/14 13:08:08;;;;;;;29.95;15.77;;;;;;;6.69;58.94;100764.06;4432963;32;35612;-78
2021/12/14 13:11:07;;;;;;;28.92;16.02;;;;;;;6.67;58.80;100758.84;4434364;32;34583;-78
2021/12/14 13:14:14;;;;;;;28.80;16.58;;;;;;;6.98;57.59;100768.13;4434294;32;33900;-78
2021/12/14 13:17:03;;;;;;;30.85;16.27;;;;;;;6.73;57.74;100781.50;4431689;32;34596;-78
2021/12/14 13:19:59;;;;;;;30.48;16.00;;;;;;;6.44;58.80;100772.78;4432654;32;35054;-78
2021/12/14 13:22:48;;;;;;;32.08;16.33;;;;;;;6.44;59.34;100779.03;4432717;32;34900;-78
2021/12/14 13:25:36;;;;;;;33.00;18.30;;;;;;;6.15;58.85;100775.72;4433519;32;34252;-78
2021/12/14 13:28:37;;;;;;;29.42;16.67;;;;;;;4.72;64.73;100779.81;4432673;32;34350;-78
2021/12/14 13:31:25;;;;;;;29.60;15.80;;;;;;;5.06;65.13;100784.44;4432695;32;35529;-78